createdAt,value
2023-03-17T00:00:44.473Z,31.38
2023-03-17T00:03:32.631Z,31.97
2023-03-17T00:06:00.395Z,32.12
2023-03-17T00:08:30.345Z,32.48
2023-03-17T00:10:57.721Z,31.90
2023-03-17T00:13:26.154Z,31.61
2023-03-17T00:15:56.954Z,32.31
2023-03-17T00:18:24.667Z,32.90
2023-03-17T00:20:52.524Z,31.69
2023-03-17T00:23:22.365Z,33.49
2023-03-17T00:25:51.728Z,34.17
2023-03-17T00:28:21.132Z,34.30
2023-03-17T00:30:55.755Z,32.31
2023-03-17T00:33:26.548Z,31.48
2023-03-17T00:35:55.339Z,31.63
2023-03-17T00:38:24.468Z,31.71
2023-03-17T00:40:52.012Z,32.07
2023-03-17T00:43:22.583Z,32.59
2023-03-17T00:45:51.116Z,31.37
2023-03-17T00:48:22.234Z,31.85
2023-03-17T00:50:50.954Z,32.62
2023-03-17T00:53:21.513Z,31.89
2023-03-17T00:55:49.224Z,32.42
2023-03-17T00:58:28.801Z,31.83
2023-03-17T01:00:56.948Z,33.05
2023-03-17T01:03:25.567Z,31.88
2023-03-17T01:05:54.273Z,31.97
2023-03-17T01:08:22.638Z,33.09
2023-03-17T01:10:50.315Z,32.75
2023-03-17T01:13:19.674Z,32.64
2023-03-17T01:15:48.611Z,31.67
2023-03-17T01:18:17.990Z,32.09
2023-03-17T01:20:45.780Z,32.11
2023-03-17T01:23:13.376Z,32.12
2023-03-17T01:25:42.789Z,33.43
2023-03-17T01:28:13.458Z,33.04
2023-03-17T01:30:41.357Z,33.32
2023-03-17T01:33:10.345Z,32.24
2023-03-17T01:35:38.518Z,33.06
2023-03-17T01:38:06.469Z,32.76
2023-03-17T01:40:43.071Z,32.94
2023-03-17T01:43:10.666Z,32.98
2023-03-17T01:46:16.037Z,32.69
2023-03-17T01:49:21.241Z,32.47
2023-03-17T01:52:10.088Z,33.54
2023-03-17T01:55:02.824Z,33.34
2023-03-17T01:57:34.505Z,34.27
2023-03-17T02:00:06.315Z,34.00
2023-03-17T02:02:43.849Z,34.36
2023-03-17T02:05:15.700Z,34.12
2023-03-17T02:07:43.331Z,33.71
2023-03-17T02:10:12.720Z,34.05
2023-03-17T02:12:42.268Z,34.87
2023-03-17T02:15:10.607Z,34.13
2023-03-17T02:17:39.550Z,33.87
2023-03-17T02:20:16.056Z,34.02
2023-03-17T02:22:44.895Z,33.06
2023-03-17T02:25:14.989Z,32.66
2023-03-17T02:27:46.301Z,33.36
2023-03-17T02:30:16.915Z,33.95
2023-03-17T02:32:44.443Z,33.67
2023-03-17T02:35:13.048Z,34.16
2023-03-17T02:37:43.592Z,34.12
2023-03-17T02:40:11.600Z,33.67
2023-03-17T02:42:42.030Z,33.92
2023-03-17T02:45:11.660Z,33.79
2023-03-17T02:47:39.417Z,33.84
2023-03-17T02:50:08.394Z,34.97
2023-03-17T02:52:36.492Z,34.64
2023-03-17T02:55:03.959Z,34.54
2023-03-17T02:57:31.536Z,34.40
2023-03-17T02:59:59.356Z,34.63
2023-03-17T03:02:27.096Z,34.57
2023-03-17T03:04:54.620Z,34.37
2023-03-17T03:07:22.850Z,34.47
2023-03-17T03:09:50.268Z,34.02
2023-03-17T03:12:17.841Z,34.09
2023-03-17T03:14:45.969Z,34.18
2023-03-17T03:17:13.496Z,34.28
2023-03-17T03:19:40.940Z,34.59
2023-03-17T03:22:09.236Z,35.11
2023-03-17T03:24:37.880Z,34.80
2023-03-17T03:27:05.354Z,34.61
2023-03-17T03:29:33.113Z,34.58
2023-03-17T03:32:00.796Z,34.72
2023-03-17T03:34:28.444Z,34.26
2023-03-17T03:36:56.261Z,34.06
2023-03-17T03:39:23.693Z,34.21
2023-03-17T03:41:51.137Z,34.59
2023-03-17T03:44:18.934Z,34.31
2023-03-17T03:46:46.498Z,34.46
2023-03-17T03:49:13.939Z,34.40
2023-03-17T03:51:41.676Z,35.30
2023-03-17T03:54:09.142Z,34.83
2023-03-17T03:56:36.505Z,35.09
2023-03-17T03:59:04.195Z,34.41
2023-03-17T04:01:31.587Z,34.38
2023-03-17T04:03:59.268Z,35.26
2023-03-17T04:06:26.748Z,36.79
2023-03-17T04:08:55.426Z,35.45
2023-03-17T04:11:24.097Z,35.12
2023-03-17T04:13:51.503Z,35.00
2023-03-17T04:16:19.009Z,35.43
2023-03-17T04:18:46.719Z,35.09
2023-03-17T04:21:18.405Z,35.26
2023-03-17T04:23:46.512Z,35.44
2023-03-17T04:26:14.509Z,34.83
2023-03-17T04:28:41.998Z,34.89
2023-03-17T04:31:12.355Z,34.67
2023-03-17T04:33:40.685Z,35.39
2023-03-17T04:36:09.433Z,34.84
2023-03-17T04:38:37.036Z,34.72
2023-03-17T04:41:04.819Z,34.61
2023-03-17T04:43:32.229Z,34.76
2023-03-17T04:45:59.637Z,34.81
2023-03-17T04:48:27.343Z,35.55
2023-03-17T04:50:54.705Z,35.28
2023-03-17T04:53:22.397Z,35.29
2023-03-17T04:55:50.419Z,36.03
2023-03-17T04:58:29.805Z,35.73
2023-03-17T05:00:59.047Z,35.14
2023-03-17T05:03:28.490Z,34.19
2023-03-17T05:05:57.702Z,34.36
2023-03-17T05:08:27.301Z,34.05
2023-03-17T05:10:55.989Z,33.79
2023-03-17T05:13:24.419Z,34.34
2023-03-17T05:15:53.540Z,34.73
2023-03-17T05:18:23.947Z,34.12
2023-03-17T05:20:51.673Z,34.87
2023-03-17T05:23:19.098Z,35.40
2023-03-17T05:25:46.913Z,34.45
2023-03-17T05:28:14.995Z,33.72
2023-03-17T05:30:43.127Z,33.27
2023-03-17T05:33:10.555Z,34.12
2023-03-17T05:35:38.390Z,34.34
2023-03-17T05:38:05.790Z,33.50
2023-03-17T05:40:33.436Z,33.21
2023-03-17T05:43:01.847Z,34.64
2023-03-17T05:45:30.499Z,34.18
2023-03-17T05:47:57.984Z,33.38
2023-03-17T05:50:26.349Z,33.12
2023-03-17T05:52:53.741Z,32.89
2023-03-17T05:55:21.248Z,33.71
2023-03-17T05:57:48.909Z,32.72
2023-03-17T06:00:16.823Z,33.88
2023-03-17T06:02:44.652Z,33.55
2023-03-17T06:05:12.377Z,33.38
2023-03-17T06:07:51.638Z,33.47
2023-03-17T06:10:20.912Z,33.12
2023-03-17T06:12:48.445Z,33.60
2023-03-17T06:15:17.065Z,33.82
2023-03-17T06:17:44.792Z,32.98
2023-03-17T06:20:13.157Z,33.05
2023-03-17T06:22:55.223Z,33.17
2023-03-17T06:25:28.448Z,32.66
2023-03-17T06:27:56.249Z,32.19
2023-03-17T06:30:23.711Z,31.58
2023-03-17T06:32:51.402Z,31.87
2023-03-17T06:35:18.998Z,31.16
2023-03-17T06:37:46.770Z,31.01
2023-03-17T06:40:16.227Z,31.69
2023-03-17T06:42:43.896Z,31.09
2023-03-17T06:45:12.059Z,30.85
2023-03-17T06:47:40.064Z,30.42
2023-03-17T06:50:09.724Z,30.44
2023-03-17T06:52:37.901Z,30.66
2023-03-17T06:55:06.291Z,33.20
2023-03-17T06:57:33.706Z,29.64
2023-03-17T07:00:01.179Z,30.99
2023-03-17T07:02:28.849Z,28.99
2023-03-17T07:04:58.176Z,30.12
2023-03-17T07:07:25.698Z,29.69
2023-03-17T07:09:54.063Z,29.88
2023-03-17T07:12:21.975Z,30.45
2023-03-17T07:14:49.465Z,31.64
2023-03-17T07:17:17.196Z,31.92
2023-03-17T07:19:44.698Z,31.18
2023-03-17T07:22:12.357Z,30.71
2023-03-17T07:24:41.899Z,30.87
2023-03-17T07:27:09.900Z,30.90
2023-03-17T07:29:37.511Z,32.54
2023-03-17T07:32:07.335Z,30.93
2023-03-17T07:34:35.769Z,31.34
2023-03-17T07:37:03.504Z,31.38
2023-03-17T07:39:31.332Z,31.60
2023-03-17T07:41:58.802Z,31.80
2023-03-17T07:44:27.530Z,31.30
2023-03-17T07:46:55.484Z,31.44
2023-03-17T07:49:39.969Z,30.32
2023-03-17T07:52:09.770Z,27.81
2023-03-17T07:54:37.773Z,27.45
2023-03-17T07:57:06.367Z,26.59
2023-03-17T07:59:34.088Z,23.49
2023-03-17T08:02:01.840Z,21.64
2023-03-17T08:04:29.634Z,19.64
2023-03-17T08:06:57.684Z,19.60
2023-03-17T08:09:25.651Z,19.73
2023-03-17T08:11:53.445Z,18.94
2023-03-17T08:14:21.317Z,18.59
2023-03-17T08:16:48.808Z,20.06
2023-03-17T08:19:16.599Z,22.94
2023-03-17T08:21:44.081Z,22.22
2023-03-17T08:24:11.919Z,23.10
2023-03-17T08:26:39.713Z,22.43
2023-03-17T08:29:08.194Z,22.42
2023-03-17T08:31:35.812Z,23.51
2023-03-17T08:34:04.453Z,25.03
2023-03-17T08:36:31.913Z,25.93
2023-03-17T08:38:59.422Z,27.29
2023-03-17T08:41:28.297Z,27.27
2023-03-17T08:43:56.104Z,27.61
2023-03-17T08:46:31.588Z,27.67
2023-03-17T08:48:59.912Z,28.82
2023-03-17T08:51:31.715Z,28.08
2023-03-17T08:53:59.751Z,27.31
2023-03-17T08:56:27.840Z,27.64
2023-03-17T08:58:55.770Z,27.16
2023-03-17T09:01:24.578Z,27.24
2023-03-17T09:03:53.602Z,26.60
2023-03-17T09:06:22.524Z,25.82
2023-03-17T09:08:55.339Z,24.98
2023-03-17T09:11:28.919Z,24.43
2023-03-17T09:13:56.745Z,24.45
2023-03-17T09:16:25.331Z,25.16
2023-03-17T09:18:52.936Z,25.52
2023-03-17T09:21:21.224Z,24.88
2023-03-17T09:23:48.790Z,26.29
2023-03-17T09:26:16.422Z,24.89
2023-03-17T09:28:44.768Z,24.19
2023-03-17T09:31:12.520Z,22.62
2023-03-17T09:33:40.746Z,23.67
2023-03-17T09:36:09.960Z,24.07
2023-03-17T09:38:38.004Z,23.24
2023-03-17T09:41:20.730Z,22.31
2023-03-17T09:44:07.002Z,22.61
2023-03-17T09:46:40.793Z,23.16
2023-03-17T09:49:12.224Z,23.45
2023-03-17T09:51:39.801Z,22.71
2023-03-17T09:54:28.304Z,22.54
2023-03-17T09:57:10.856Z,21.81
2023-03-17T09:59:47.453Z,22.22
2023-03-17T10:02:22.968Z,22.25
2023-03-17T10:04:51.737Z,21.96
2023-03-17T10:07:37.322Z,21.46
2023-03-17T10:10:05.708Z,21.30
2023-03-17T10:12:55.897Z,21.82
2023-03-17T10:15:32.397Z,21.79
2023-03-17T10:18:00.160Z,21.24
2023-03-17T10:20:30.781Z,20.51
2023-03-17T10:23:01.709Z,20.73
2023-03-17T10:25:32.762Z,20.25
2023-03-17T10:28:18.953Z,21.47
2023-03-17T10:30:46.594Z,20.47
2023-03-17T10:33:14.168Z,19.93
2023-03-17T10:35:45.148Z,20.39
2023-03-17T10:38:17.881Z,20.20
2023-03-17T10:40:48.039Z,20.69
2023-03-17T10:43:20.598Z,21.25
2023-03-17T10:46:03.087Z,22.62
2023-03-17T10:48:36.244Z,22.47
2023-03-17T10:51:11.073Z,21.52
2023-03-17T10:53:43.840Z,21.56
2023-03-17T10:56:21.212Z,21.34
2023-03-17T10:58:50.653Z,21.36
2023-03-17T11:01:22.837Z,22.44
2023-03-17T11:03:50.900Z,21.40
2023-03-17T11:06:20.493Z,20.78
2023-03-17T11:08:50.587Z,21.16
2023-03-17T11:11:34.610Z,21.25
2023-03-17T11:14:06.102Z,19.79
2023-03-17T11:16:37.747Z,19.73
2023-03-17T11:19:10.170Z,20.48
2023-03-17T11:21:54.543Z,20.60
2023-03-17T11:24:31.462Z,20.90
2023-03-17T11:27:06.225Z,21.13
2023-03-17T11:29:37.359Z,21.66
2023-03-17T11:32:29.668Z,21.39
2023-03-17T11:35:28.414Z,21.89
2023-03-17T11:38:11.681Z,22.28
2023-03-17T11:40:51.558Z,21.49
2023-03-17T11:43:43.942Z,21.30
2023-03-17T11:46:16.977Z,21.41
2023-03-17T11:49:00.645Z,22.02
2023-03-17T11:51:33.620Z,21.85
2023-03-17T11:54:19.347Z,21.73
2023-03-17T11:56:51.883Z,22.40
2023-03-17T11:59:52.467Z,21.91
2023-03-17T12:02:36.960Z,20.94
2023-03-17T12:05:10.970Z,22.66
2023-03-17T12:07:42.401Z,21.50
2023-03-17T12:10:23.452Z,23.02
2023-03-17T12:12:54.914Z,22.03
2023-03-17T12:15:30.296Z,21.54
2023-03-17T12:17:59.518Z,20.92
2023-03-17T12:20:34.079Z,22.20
2023-03-17T12:23:07.430Z,22.20
2023-03-17T12:25:51.240Z,22.83
2023-03-17T12:28:27.783Z,22.21
2023-03-17T12:31:04.121Z,22.35
2023-03-17T12:33:38.423Z,21.04
2023-03-17T12:36:09.068Z,21.36
2023-03-17T12:38:47.115Z,21.84
2023-03-17T12:41:49.127Z,22.72
2023-03-17T12:44:44.791Z,21.51
2023-03-17T12:47:24.385Z,22.11
2023-03-17T12:50:29.840Z,22.57
2023-03-17T12:53:26.683Z,21.79
2023-03-17T12:55:58.556Z,22.73
2023-03-17T12:58:31.349Z,22.30
2023-03-17T13:01:09.314Z,22.51
2023-03-17T13:03:47.081Z,21.96
2023-03-17T13:06:19.135Z,21.55
2023-03-17T13:08:50.376Z,21.84
2023-03-17T13:11:27.227Z,21.87
2023-03-17T13:13:54.852Z,22.31
2023-03-17T13:16:39.258Z,22.06
2023-03-17T13:19:20.849Z,21.96
2023-03-17T13:22:00.646Z,22.40
2023-03-17T13:24:42.409Z,20.48
2023-03-17T13:27:12.263Z,20.87
2023-03-17T13:29:43.581Z,21.81
2023-03-17T13:32:17.069Z,22.64
2023-03-17T13:35:01.198Z,23.32
2023-03-17T13:37:31.154Z,23.84
2023-03-17T13:40:10.716Z,23.16
2023-03-17T13:42:50.700Z,22.81
2023-03-17T13:45:39.305Z,22.06
2023-03-17T13:48:36.387Z,23.08
2023-03-17T13:51:24.131Z,23.25
2023-03-17T13:53:59.043Z,22.79
2023-03-17T13:56:36.561Z,23.64
2023-03-17T13:59:05.373Z,22.38
2023-03-17T14:01:43.075Z,23.05
2023-03-17T14:04:20.408Z,22.71
2023-03-17T14:06:50.765Z,24.23
2023-03-17T14:09:25.425Z,23.27
2023-03-17T14:11:53.593Z,23.25
2023-03-17T14:15:07.620Z,22.27
2023-03-17T14:17:41.836Z,22.82
2023-03-17T14:20:15.645Z,22.75
2023-03-17T14:22:46.007Z,21.86
2023-03-17T14:25:17.142Z,22.03
2023-03-17T14:27:47.549Z,23.11
2023-03-17T14:30:21.683Z,23.57
2023-03-17T14:32:58.993Z,23.10
2023-03-17T14:35:33.794Z,22.39
2023-03-17T14:38:01.966Z,21.70
2023-03-17T14:40:32.392Z,21.63
2023-03-17T14:42:59.796Z,22.17
2023-03-17T14:45:53.031Z,21.27
2023-03-17T14:48:27.363Z,21.44
2023-03-17T14:50:56.819Z,22.14
2023-03-17T14:53:25.172Z,21.32
2023-03-17T14:55:53.110Z,21.22
2023-03-17T14:58:37.183Z,21.77
2023-03-17T15:01:20.984Z,24.12
2023-03-17T15:03:57.127Z,24.07
2023-03-17T15:06:30.535Z,23.13
2023-03-17T15:08:59.653Z,22.90
2023-03-17T15:11:36.362Z,22.52
2023-03-17T15:14:12.772Z,22.66
2023-03-17T15:16:45.844Z,22.37
2023-03-17T15:19:46.382Z,22.37
2023-03-17T15:22:32.039Z,23.73
2023-03-17T15:25:22.074Z,22.83
2023-03-17T15:27:49.819Z,22.08
2023-03-17T15:30:18.026Z,22.08
2023-03-17T15:32:51.819Z,22.06
2023-03-17T15:35:19.867Z,22.12
2023-03-17T15:37:47.519Z,22.77
2023-03-17T15:40:15.712Z,22.77
2023-03-17T15:42:43.481Z,23.56
2023-03-17T15:45:14.939Z,23.55
2023-03-17T15:47:44.250Z,23.63
2023-03-17T15:50:29.331Z,24.82
2023-03-17T15:52:57.885Z,23.77
2023-03-17T15:55:30.840Z,23.25
2023-03-17T15:57:59.142Z,24.26
2023-03-17T16:00:29.563Z,25.23
2023-03-17T16:03:06.568Z,24.07
2023-03-17T16:05:35.359Z,24.11
2023-03-17T16:08:03.155Z,23.86
2023-03-17T16:10:32.555Z,24.48
2023-03-17T16:13:00.410Z,23.78
2023-03-17T16:15:31.280Z,23.50
2023-03-17T16:18:01.638Z,23.44
2023-03-17T16:20:44.323Z,23.84
2023-03-17T16:23:17.473Z,24.60
2023-03-17T16:25:46.242Z,24.67
2023-03-17T16:28:17.912Z,24.13
2023-03-17T16:30:46.478Z,23.73
2023-03-17T16:33:23.697Z,23.28
2023-03-17T16:35:53.341Z,23.78
2023-03-17T16:38:24.668Z,23.17
2023-03-17T16:40:54.184Z,22.97
2023-03-17T16:43:33.585Z,23.49
2023-03-17T16:46:03.016Z,23.13
2023-03-17T16:48:31.169Z,23.02
2023-03-17T16:50:58.600Z,22.91
2023-03-17T16:53:26.492Z,23.65
2023-03-17T16:55:54.546Z,23.13
2023-03-17T16:58:24.844Z,23.52
2023-03-17T17:01:02.127Z,23.22
2023-03-17T17:03:31.145Z,23.17
2023-03-17T17:06:00.050Z,24.13
2023-03-17T17:08:27.499Z,24.20
2023-03-17T17:10:54.918Z,23.37
2023-03-17T17:13:22.838Z,23.40
2023-03-17T17:15:50.298Z,23.37
2023-03-17T17:18:24.635Z,23.65
2023-03-17T17:20:53.690Z,24.02
2023-03-17T17:23:26.084Z,24.38
2023-03-17T17:25:54.496Z,24.07
2023-03-17T17:28:23.971Z,23.85
2023-03-17T17:30:52.089Z,23.59
2023-03-17T17:33:20.371Z,23.90
2023-03-17T17:35:49.101Z,23.90
2023-03-17T17:38:28.951Z,24.12
2023-03-17T17:40:58.376Z,24.61
2023-03-17T17:43:26.191Z,24.02
2023-03-17T17:45:54.551Z,24.24
2023-03-17T17:48:24.370Z,24.26
2023-03-17T17:50:52.985Z,24.41
2023-03-17T17:53:20.745Z,23.99
2023-03-17T17:55:49.600Z,25.14
2023-03-17T17:58:19.474Z,24.26
2023-03-17T18:00:46.992Z,24.58
2023-03-17T18:03:15.053Z,24.37
2023-03-17T18:05:42.905Z,24.18
2023-03-17T18:08:13.429Z,24.32
2023-03-17T18:10:41.380Z,24.78
2023-03-17T18:13:09.603Z,24.37
2023-03-17T18:15:37.191Z,24.30
2023-03-17T18:18:05.772Z,24.04
2023-03-17T18:20:33.609Z,23.93
2023-03-17T18:23:01.488Z,24.49
2023-03-17T18:25:29.853Z,24.64
2023-03-17T18:27:57.466Z,24.28
2023-03-17T18:30:27.805Z,24.28
2023-03-17T18:32:58.420Z,24.39
2023-03-17T18:35:27.661Z,24.47
2023-03-17T18:37:57.315Z,26.63
2023-03-17T18:40:26.150Z,26.47
2023-03-17T18:42:53.817Z,27.63
2023-03-17T18:45:21.783Z,27.23
2023-03-17T18:47:49.229Z,26.86
2023-03-17T18:50:17.601Z,27.31
2023-03-17T18:52:45.952Z,28.39
2023-03-17T18:55:15.151Z,29.32
2023-03-17T18:57:44.778Z,28.14
2023-03-17T19:00:14.590Z,29.12
2023-03-17T19:02:42.158Z,27.68
2023-03-17T19:05:10.108Z,29.83
2023-03-17T19:07:40.183Z,28.69
2023-03-17T19:10:09.854Z,28.83
2023-03-17T19:12:37.628Z,29.06
2023-03-17T19:15:06.696Z,29.30
2023-03-17T19:17:34.710Z,29.16
2023-03-17T19:20:02.837Z,28.07
2023-03-17T19:22:30.497Z,28.69
2023-03-17T19:24:58.036Z,29.14
2023-03-17T19:27:25.913Z,27.32
2023-03-17T19:29:53.859Z,27.16
2023-03-17T19:32:21.291Z,26.71
2023-03-17T19:34:48.780Z,27.37
2023-03-17T19:37:16.875Z,27.32
2023-03-17T19:39:44.990Z,27.02
2023-03-17T19:42:12.677Z,27.81
2023-03-17T19:44:40.643Z,27.64
2023-03-17T19:47:08.500Z,27.05
2023-03-17T19:49:37.637Z,26.70
2023-03-17T19:52:06.570Z,26.59
2023-03-17T19:54:34.920Z,26.76
2023-03-17T19:57:02.370Z,26.85
2023-03-17T19:59:30.464Z,27.33
2023-03-17T20:01:58.529Z,27.41
2023-03-17T20:04:26.447Z,27.02
2023-03-17T20:06:55.730Z,27.12
2023-03-17T20:09:24.767Z,27.70
2023-03-17T20:11:56.523Z,27.61
2023-03-17T20:14:23.990Z,27.76
2023-03-17T20:16:51.943Z,27.99
2023-03-17T20:19:20.080Z,27.31
2023-03-17T20:21:47.851Z,27.66
2023-03-17T20:24:15.563Z,27.92
2023-03-17T20:26:44.681Z,27.74
2023-03-17T20:29:16.190Z,27.64
2023-03-17T20:31:44.197Z,27.57
2023-03-17T20:34:11.758Z,27.75
2023-03-17T20:36:42.405Z,27.70
2023-03-17T20:39:14.838Z,27.86
2023-03-17T20:41:42.430Z,28.07
2023-03-17T20:44:10.094Z,28.13
2023-03-17T20:46:38.925Z,28.16
2023-03-17T20:49:07.454Z,28.24
2023-03-17T20:51:35.595Z,28.72
2023-03-17T20:54:03.553Z,28.71
2023-03-17T20:56:33.772Z,28.61
2023-03-17T20:59:04.913Z,28.27
2023-03-17T21:01:34.828Z,28.39
2023-03-17T21:04:06.447Z,28.53
2023-03-17T21:06:34.289Z,28.48
2023-03-17T21:09:02.436Z,28.64
2023-03-17T21:11:30.713Z,28.75
2023-03-17T21:13:58.616Z,29.15
2023-03-17T21:16:28.408Z,29.38
2023-03-17T21:18:56.196Z,28.91
2023-03-17T21:21:24.755Z,28.66
2023-03-17T21:23:52.787Z,28.96
2023-03-17T21:26:20.624Z,28.59
2023-03-17T21:28:48.739Z,28.65
2023-03-17T21:31:17.304Z,29.59
2023-03-17T21:33:44.937Z,29.08
2023-03-17T21:36:12.654Z,28.97
2023-03-17T21:38:40.523Z,28.39
2023-03-17T21:41:33.725Z,28.12
2023-03-17T21:44:02.628Z,28.35
2023-03-17T21:46:31.691Z,29.31
2023-03-17T21:48:59.173Z,29.40
2023-03-17T21:51:27.348Z,30.36
2023-03-17T21:53:54.714Z,29.16
2023-03-17T21:56:22.129Z,29.21
2023-03-17T21:58:50.236Z,29.99
2023-03-17T22:01:18.491Z,30.91
2023-03-17T22:03:46.197Z,29.39
2023-03-17T22:06:14.992Z,29.96
2023-03-17T22:08:42.947Z,29.03
2023-03-17T22:11:13.250Z,29.07
2023-03-17T22:13:41.433Z,29.21
2023-03-17T22:16:10.018Z,29.39
2023-03-17T22:18:38.170Z,30.37
2023-03-17T22:21:06.263Z,30.82
2023-03-17T22:23:39.630Z,30.11
2023-03-17T22:26:13.317Z,29.58
2023-03-17T22:28:41.455Z,28.94
2023-03-17T22:31:18.087Z,28.71
2023-03-17T22:33:46.831Z,30.02
2023-03-17T22:36:15.383Z,29.07
2023-03-17T22:38:42.791Z,28.95
2023-03-17T22:41:16.020Z,28.57
2023-03-17T22:43:44.244Z,29.32
2023-03-17T22:46:11.894Z,28.82
2023-03-17T22:48:40.430Z,29.38
2023-03-17T22:51:11.578Z,29.05
2023-03-17T22:53:39.780Z,28.99
2023-03-17T22:56:08.287Z,29.09
2023-03-17T22:58:36.064Z,30.81
2023-03-17T23:01:05.687Z,29.15
2023-03-17T23:03:33.965Z,29.49
2023-03-17T23:06:03.851Z,30.20
2023-03-17T23:08:35.030Z,29.92
2023-03-17T23:11:08.694Z,29.47
2023-03-17T23:13:36.485Z,30.21
2023-03-17T23:16:04.721Z,29.99
2023-03-17T23:18:32.293Z,29.55
2023-03-17T23:21:00.142Z,30.98
2023-03-17T23:23:27.979Z,30.65
2023-03-17T23:25:55.397Z,31.04
2023-03-17T23:28:23.223Z,30.60
2023-03-17T23:30:51.960Z,31.89
2023-03-17T23:33:21.594Z,31.16
2023-03-17T23:35:50.309Z,30.78
2023-03-17T23:38:19.556Z,30.69
2023-03-17T23:40:48.116Z,32.07
2023-03-17T23:43:15.523Z,33.75
2023-03-17T23:45:43.327Z,33.40
2023-03-17T23:48:11.786Z,33.01
2023-03-17T23:50:39.941Z,31.88
2023-03-17T23:53:07.627Z,30.65
2023-03-17T23:55:35.694Z,30.86
2023-03-17T23:58:03.398Z,30.84
